Time;durP1;ratioP1;P1;durP2;ratioP2;P2;SDS_P1;SDS_P2;PMS_P1;PMS_P2;Temp;Humidity;BMP_temperature;BMP_pressure;BME280_temperature;BME280_humidity;BME280_pressure;Samples;Min_cycle;Max_cycle;Signal;HPM_P1;HPM_P2
2022/12/18 00:00:49;;;;;;;72.22;22.15;;;-3.70;99.90;;;;;;5092439;28;20043;-44
2022/12/18 00:03:15;;;;;;;78.35;24.60;;;-3.80;99.90;;;;;;5092369;28;20032;-46
2022/12/18 00:05:51;;;;;;;84.03;25.20;;;-3.60;99.90;;;;;;5092501;28;20046;-44
2022/12/18 00:08:18;;;;;;;86.72;23.38;;;-3.80;99.90;;;;;;5092676;28;20048;-44
2022/12/18 00:10:44;;;;;;;79.65;24.38;;;-3.90;99.90;;;;;;5092274;28;20040;-47
2022/12/18 00:13:11;;;;;;;72.97;24.02;;;-3.70;99.90;;;;;;5074403;28;20104;-46
2022/12/18 00:15:39;;;;;;;78.25;25.25;;;-3.60;99.90;;;;;;5092313;28;20074;-43
2022/12/18 00:18:05;;;;;;;75.43;24.00;;;-3.90;99.90;;;;;;5092593;28;20491;-47
2022/12/18 00:20:30;;;;;;;71.05;23.65;;;-3.90;99.90;;;;;;5092372;28;20055;-46
2022/12/18 00:22:56;;;;;;;78.93;25.65;;;-3.90;99.90;;;;;;5091829;28;20071;-45
2022/12/18 00:25:22;;;;;;;84.85;25.95;;;-3.60;99.90;;;;;;5091727;28;20383;-45
2022/12/18 00:27:48;;;;;;;91.68;26.42;;;-3.80;99.90;;;;;;5091922;28;20047;-45
2022/12/18 00:30:14;;;;;;;88.10;24.23;;;-3.90;99.90;;;;;;5091996;28;20177;-46
2022/12/18 00:32:40;;;;;;;82.85;24.35;;;-3.40;99.90;;;;;;5092333;28;20035;-45
2022/12/18 00:35:06;;;;;;;91.63;26.80;;;-3.60;99.90;;;;;;5092128;28;20048;-45
2022/12/18 00:37:33;;;;;;;97.50;27.70;;;-3.80;99.90;;;;;;5091554;28;20047;-45
2022/12/18 00:39:59;;;;;;;94.85;28.73;;;-3.50;99.90;;;;;;5091864;28;20032;-46
2022/12/18 00:45:09;;;;;;;84.30;25.55;;;-3.70;99.90;;;;;;5091935;28;20040;-47
2022/12/18 00:47:35;;;;;;;92.25;26.35;;;-3.90;99.90;;;;;;5091877;28;20032;-46
2022/12/18 00:50:00;;;;;;;83.72;25.92;;;-3.80;99.90;;;;;;5091176;28;20188;-46
2022/12/18 00:52:26;;;;;;;90.13;26.73;;;-3.70;99.90;;;;;;5091314;28;20042;-44
2022/12/18 00:54:52;;;;;;;86.65;27.17;;;-3.90;99.90;;;;;;5091356;28;20024;-43
2022/12/18 00:57:17;;;;;;;97.00;27.52;;;-3.70;99.90;;;;;;5091683;28;20090;-45
2022/12/18 00:59:43;;;;;;;92.40;28.08;;;-3.80;99.90;;;;;;5055962;28;20032;-47
2022/12/18 01:02:09;;;;;;;89.82;28.70;;;-3.70;99.90;;;;;;5091456;28;20038;-45
2022/12/18 01:04:35;;;;;;;88.65;27.13;;;-4.10;99.90;;;;;;5073219;28;20039;-46
2022/12/18 01:07:00;;;;;;;91.20;29.02;;;-3.90;99.90;;;;;;5090892;28;20055;-46
2022/12/18 01:09:26;;;;;;;92.13;29.55;;;-3.80;99.90;;;;;;5091393;28;20040;-49
2022/12/18 01:11:52;;;;;;;95.20;28.55;;;-3.90;99.90;;;;;;5091380;28;20032;-46
2022/12/18 01:14:17;;;;;;;91.35;29.13;;;-4.10;99.90;;;;;;5072376;28;20040;-47
2022/12/18 01:16:43;;;;;;;94.47;27.13;;;-4.10;99.90;;;;;;5091409;28;20088;-47
2022/12/18 01:19:09;;;;;;;93.45;28.15;;;-4.20;99.90;;;;;;5072900;28;20043;-44
2022/12/18 01:21:35;;;;;;;83.35;27.92;;;-3.80;99.90;;;;;;5091138;28;20231;-43
2022/12/18 01:24:00;;;;;;;95.65;26.45;;;-3.90;99.90;;;;;;5091047;28;20040;-45
2022/12/18 01:26:29;;;;;;;92.68;28.05;;;-4.20;99.90;;;;;;5090678;28;20340;-45
2022/12/18 01:28:56;;;;;;;89.82;28.50;;;-4.20;99.90;;;;;;5091208;28;20526;-44
2022/12/18 01:31:29;;;;;;;79.03;24.77;;;-4.20;99.90;;;;;;5073056;28;20088;-45
2022/12/18 01:33:55;;;;;;;103.43;29.10;;;-4.30;99.90;;;;;;5090252;28;20502;-49
2022/12/18 01:36:24;;;;;;;97.95;30.05;;;-4.30;99.90;;;;;;5090281;28;20399;-45
2022/12/18 01:38:51;;;;;;;94.95;29.63;;;-4.20;99.90;;;;;;5072609;28;20040;-44
2022/12/18 01:41:19;;;;;;;91.05;27.63;;;-4.20;99.90;;;;;;5090692;28;20044;-46
2022/12/18 01:43:54;;;;;;;87.82;27.10;;;-4.10;99.90;;;;;;5090660;28;20579;-43
2022/12/18 01:46:22;;;;;;;96.63;29.52;;;-4.30;99.90;;;;;;5089561;28;20058;-45
2022/12/18 01:48:51;;;;;;;94.43;28.65;;;-4.40;99.90;;;;;;5090855;28;20483;-43
2022/12/18 01:51:17;;;;;;;89.60;26.50;;;-4.40;99.90;;;;;;5091130;28;20038;-45
2022/12/18 01:53:44;;;;;;;96.15;30.35;;;-4.40;99.90;;;;;;5089617;28;20132;-46
2022/12/18 01:56:14;;;;;;;96.45;28.58;;;-4.20;99.90;;;;;;5071960;28;20478;-47
2022/12/18 01:58:53;;;;;;;91.18;27.48;;;-4.20;99.90;;;;;;5090623;28;20071;-44
2022/12/18 02:01:24;;;;;;;83.00;28.17;;;-4.30;99.90;;;;;;5090445;28;20036;-48
2022/12/18 02:03:49;;;;;;;97.85;27.05;;;-4.40;99.90;;;;;;5090402;28;20039;-44
2022/12/18 02:06:24;;;;;;;82.03;27.50;;;-4.30;99.90;;;;;;5070786;28;20132;-44
2022/12/18 02:09:13;;;;;;;85.05;27.45;;;-4.50;99.90;;;;;;5090279;28;20071;-44
2022/12/18 02:12:32;;;;;;;77.10;25.83;;;-3.10;99.90;;;;;;5056242;28;20051;-48
2022/12/18 02:15:16;;;;;;;73.97;25.85;;;-4.50;99.90;;;;;;5066872;28;20047;-46
2022/12/18 02:17:45;;;;;;;79.63;24.85;;;-4.70;99.90;;;;;;5090354;28;20115;-46
2022/12/18 02:20:42;;;;;;;75.72;22.98;;;-4.80;99.90;;;;;;5090215;28;20066;-45
2022/12/18 02:23:08;;;;;;;84.35;24.45;;;-4.80;99.90;;;;;;5064876;28;20036;-45
2022/12/18 02:26:01;;;;;;;80.85;25.58;;;-4.70;99.90;;;;;;5080931;28;20072;-45
2022/12/18 02:28:32;;;;;;;72.45;23.67;;;-4.90;99.90;;;;;;5089843;28;20043;-44
2022/12/18 02:31:00;;;;;;;73.93;23.70;;;-4.80;99.90;;;;;;5090038;28;20057;-42
2022/12/18 02:33:28;;;;;;;75.55;24.27;;;-5.00;99.90;;;;;;5089951;28;20483;-44
2022/12/18 02:35:55;;;;;;;74.15;23.85;;;-4.90;99.90;;;;;;5071275;28;20050;-48
2022/12/18 02:38:21;;;;;;;80.95;27.02;;;-5.00;99.90;;;;;;5090098;28;20044;-46
2022/12/18 02:40:49;;;;;;;79.95;25.50;;;-5.10;99.90;;;;;;5070707;28;20383;-46
2022/12/18 02:43:15;;;;;;;78.93;24.60;;;-5.10;99.90;;;;;;5089671;28;20039;-48
2022/12/18 02:45:56;;;;;;;71.43;24.80;;;-5.00;99.90;;;;;;5072300;28;20047;-46
2022/12/18 02:48:29;;;;;;;67.55;21.08;;;-5.00;99.90;;;;;;5094353;28;20067;-44
2022/12/18 02:51:09;;;;;;;71.32;21.98;;;-5.20;99.90;;;;;;5093131;28;20036;-44
2022/12/18 02:53:52;;;;;;;71.22;22.83;;;-5.20;99.90;;;;;;5093820;28;20111;-44
2022/12/18 02:56:31;;;;;;;75.55;24.05;;;-5.10;99.90;;;;;;5093643;28;20071;-44
2022/12/18 02:59:09;;;;;;;66.72;21.70;;;-5.10;99.90;;;;;;5075677;28;20620;-46
2022/12/18 03:01:39;;;;;;;71.15;23.05;;;-5.10;99.90;;;;;;5093736;28;20089;-46
2022/12/18 03:04:16;;;;;;;65.75;22.45;;;-5.20;99.90;;;;;;5094053;28;20036;-48
2022/12/18 03:06:49;;;;;;;66.25;22.08;;;-5.30;99.90;;;;;;5093541;28;20495;-46
2022/12/18 03:09:24;;;;;;;73.70;23.55;;;-5.20;99.90;;;;;;5093911;28;20032;-47
2022/12/18 03:14:43;;;;;;;68.18;20.85;;;-5.20;99.90;;;;;;5093827;28;20087;-46
2022/12/18 03:17:13;;;;;;;76.80;22.65;;;-5.40;99.90;;;;;;5093699;28;20043;-50
2022/12/18 03:19:40;;;;;;;62.33;21.30;;;-5.40;99.90;;;;;;5093519;28;20044;-44
2022/12/18 03:22:07;;;;;;;62.17;20.85;;;-5.30;99.90;;;;;;5093589;28;20050;-45
2022/12/18 03:24:33;;;;;;;57.42;20.23;;;-5.50;99.90;;;;;;5093135;28;20483;-45
2022/12/18 03:27:03;;;;;;;52.88;18.15;;;-5.40;99.90;;;;;;5093253;28;20072;-47
2022/12/18 03:29:36;;;;;;;70.43;20.52;;;-5.40;99.90;;;;;;5089239;28;20040;-44
2022/12/18 03:32:07;;;;;;;59.15;18.65;;;-5.40;99.90;;;;;;5091034;28;20122;-43
2022/12/18 03:34:37;;;;;;;62.20;21.75;;;-5.40;99.90;;;;;;5092013;28;20052;-44
2022/12/18 03:37:03;;;;;;;71.25;21.48;;;-5.40;99.90;;;;;;5092732;28;20036;-46
2022/12/18 03:39:29;;;;;;;72.10;21.23;;;-5.40;99.90;;;;;;5057609;28;20036;-45
2022/12/18 03:42:25;;;;;;;62.85;19.73;;;-5.40;99.90;;;;;;5075108;28;20040;-44
2022/12/18 03:44:51;;;;;;;65.30;20.52;;;-5.50;99.90;;;;;;5091640;28;20040;-44
2022/12/18 03:47:21;;;;;;;62.10;20.63;;;-5.60;99.90;;;;;;5092572;28;20549;-44
2022/12/18 03:50:09;;;;;;;49.35;17.10;;;-5.50;99.90;;;;;;5093239;28;20063;-44
2022/12/18 03:53:00;;;;;;;66.88;18.80;;;-5.60;99.90;;;;;;5092918;28;20039;-43
2022/12/18 03:55:29;;;;;;;57.35;18.92;;;-5.60;99.90;;;;;;5092333;28;20147;-46
2022/12/18 03:57:57;;;;;;;58.53;20.48;;;-5.50;99.90;;;;;;5092038;28;20043;-44
2022/12/18 04:00:22;;;;;;;58.47;19.17;;;-5.70;99.90;;;;;;5072017;28;20050;-46
2022/12/18 04:02:52;;;;;;;61.85;19.17;;;-5.60;99.90;;;;;;5091452;28;20526;-44
2022/12/18 04:05:21;;;;;;;52.45;18.80;;;-5.70;99.90;;;;;;5072974;28;20043;-46
2022/12/18 04:07:48;;;;;;;57.65;19.98;;;-5.60;99.90;;;;;;5092410;28;20526;-45
2022/12/18 04:10:16;;;;;;;61.35;20.80;;;-5.60;99.90;;;;;;5092656;28;20360;-45
2022/12/18 04:12:42;;;;;;;53.28;19.13;;;-5.70;99.90;;;;;;5092626;28;20479;-45
2022/12/18 04:15:09;;;;;;;58.30;19.90;;;-5.70;99.90;;;;;;5072938;28;20122;-44
2022/12/18 04:17:35;;;;;;;56.85;18.95;;;-5.80;99.90;;;;;;5092576;28;20467;-45
2022/12/18 04:20:00;;;;;;;56.25;18.77;;;-5.80;99.90;;;;;;5092366;28;20036;-44
2022/12/18 04:22:26;;;;;;;62.90;19.85;;;-5.70;99.90;;;;;;5092470;28;20028;-44
2022/12/18 04:24:52;;;;;;;43.88;16.83;;;-5.70;99.90;;;;;;5091900;28;20096;-43
2022/12/18 04:27:17;;;;;;;60.58;18.02;;;-5.80;99.90;;;;;;5072810;28;20503;-45
2022/12/18 04:29:43;;;;;;;55.28;19.00;;;-5.80;99.90;;;;;;5072997;28;20194;-44
2022/12/18 04:32:09;;;;;;;54.35;19.73;;;-5.80;99.90;;;;;;5092410;28;20035;-47
2022/12/18 04:34:34;;;;;;;56.40;18.13;;;-5.70;99.90;;;;;;5057440;28;20024;-44
2022/12/18 04:37:00;;;;;;;55.50;18.65;;;-5.70;99.90;;;;;;5092205;28;20040;-45
2022/12/18 04:39:26;;;;;;;57.42;19.05;;;-5.70;99.90;;;;;;5092190;28;20036;-47
2022/12/18 04:41:52;;;;;;;46.22;18.10;;;-5.80;99.90;;;;;;5092013;28;20406;-46
2022/12/18 04:44:17;;;;;;;49.05;17.38;;;-5.80;99.90;;;;;;5091756;28;20032;-46
2022/12/18 04:46:43;;;;;;;49.72;17.70;;;-5.80;99.90;;;;;;5091757;28;20052;-44
2022/12/18 04:49:10;;;;;;;49.33;17.05;;;-5.70;99.90;;;;;;5091597;28;20062;-44
2022/12/18 04:51:37;;;;;;;49.03;18.02;;;-5.80;99.90;;;;;;5091902;28;20387;-45
2022/12/18 04:54:03;;;;;;;54.60;18.10;;;-5.80;99.90;;;;;;5091578;28;20035;-43
2022/12/18 04:56:30;;;;;;;48.92;17.52;;;-5.80;99.90;;;;;;5091482;28;20043;-45
2022/12/18 04:58:56;;;;;;;50.08;16.45;;;-5.80;99.90;;;;;;5091508;28;20036;-45
2022/12/18 05:01:22;;;;;;;49.72;18.35;;;-5.80;99.90;;;;;;5073286;28;20039;-45
2022/12/18 05:03:47;;;;;;;54.78;16.90;;;-5.80;99.90;;;;;;5091451;28;20483;-44
2022/12/18 05:06:14;;;;;;;58.58;18.70;;;-5.80;99.90;;;;;;5073051;28;20392;-45
2022/12/18 05:08:39;;;;;;;50.53;17.70;;;-5.90;99.90;;;;;;5090466;28;20554;-46
2022/12/18 05:11:08;;;;;;;48.05;16.70;;;-5.80;99.90;;;;;;5091547;28;20039;-46
2022/12/18 05:13:35;;;;;;;45.05;17.30;;;-5.90;99.90;;;;;;5091477;28;20032;-46
2022/12/18 05:16:01;;;;;;;44.35;16.83;;;-5.90;99.90;;;;;;5091154;28;20071;-45
2022/12/18 05:18:28;;;;;;;44.63;15.70;;;-5.90;99.90;;;;;;5091352;28;20126;-46
2022/12/18 05:20:54;;;;;;;50.88;18.08;;;-5.90;99.90;;;;;;5090955;28;20040;-44
2022/12/18 05:23:22;;;;;;;39.80;15.48;;;-5.90;99.90;;;;;;5091175;28;20085;-44
2022/12/18 05:26:03;;;;;;;49.15;16.23;;;-5.90;99.90;;;;;;5090750;28;20051;-42
2022/12/18 05:28:30;;;;;;;46.95;16.52;;;-5.90;99.90;;;;;;5091417;28;20494;-46
2022/12/18 05:30:58;;;;;;;44.83;17.45;;;-5.90;99.90;;;;;;5090788;28;20036;-43
2022/12/18 05:33:26;;;;;;;55.13;16.08;;;-5.90;99.90;;;;;;5090806;28;20115;-47
2022/12/18 05:35:53;;;;;;;49.63;17.20;;;-5.80;99.90;;;;;;5090751;28;20590;-43
2022/12/18 05:38:20;;;;;;;45.35;16.33;;;-5.90;99.90;;;;;;5090817;28;20039;-45
2022/12/18 05:40:47;;;;;;;43.45;16.15;;;-5.90;99.90;;;;;;5090961;28;20040;-43
2022/12/18 05:43:13;;;;;;;41.28;15.07;;;-5.80;99.90;;;;;;5091000;28;20028;-44
2022/12/18 05:45:39;;;;;;;47.83;16.63;;;-5.80;99.90;;;;;;5072285;28;20044;-44
2022/12/18 05:48:06;;;;;;;47.88;15.05;;;-5.90;99.90;;;;;;5090828;28;20093;-45
2022/12/18 05:50:41;;;;;;;43.35;14.88;;;-5.80;99.90;;;;;;5072153;28;20122;-43
2022/12/18 05:53:07;;;;;;;42.58;15.10;;;-5.90;99.90;;;;;;5090412;28;20136;-43
2022/12/18 05:55:34;;;;;;;49.05;15.20;;;-5.90;99.90;;;;;;5089030;28;20375;-42
2022/12/18 05:58:00;;;;;;;47.15;16.40;;;-5.90;99.90;;;;;;5072728;28;20379;-44
2022/12/18 06:00:26;;;;;;;37.40;14.52;;;-5.90;99.90;;;;;;5090500;28;20097;-44
2022/12/18 06:02:52;;;;;;;47.72;15.93;;;-5.90;99.90;;;;;;5055159;28;20121;-45
2022/12/18 06:05:18;;;;;;;44.90;15.27;;;-6.00;99.90;;;;;;5090362;28;20035;-43
2022/12/18 06:07:44;;;;;;;45.67;15.75;;;-5.90;99.90;;;;;;5089898;28;20380;-44
2022/12/18 06:10:09;;;;;;;43.38;14.27;;;-5.90;99.90;;;;;;5090464;28;20036;-44
2022/12/18 06:12:35;;;;;;;43.60;15.90;;;-6.00;99.90;;;;;;5090264;28;20040;-46
2022/12/18 06:15:01;;;;;;;44.28;16.15;;;-6.00;99.90;;;;;;5090086;28;20046;-43
2022/12/18 06:17:33;;;;;;;46.53;16.02;;;-6.00;99.90;;;;;;5089766;28;20040;-44
2022/12/18 06:19:59;;;;;;;44.80;16.02;;;-6.00;99.90;;;;;;5090295;28;20063;-44
2022/12/18 06:22:26;;;;;;;48.80;16.50;;;-6.00;99.90;;;;;;5071661;28;21724;-45
2022/12/18 06:24:51;;;;;;;52.70;17.10;;;-6.10;99.90;;;;;;5088590;28;20040;-46
2022/12/18 06:27:17;;;;;;;47.30;15.30;;;-6.00;99.90;;;;;;5071582;28;20560;-45
2022/12/18 06:29:42;;;;;;;45.75;16.23;;;-6.00;99.90;;;;;;5090375;28;20040;-44
2022/12/18 06:32:08;;;;;;;42.55;15.25;;;-6.10;99.90;;;;;;5090004;28;20060;-44
2022/12/18 06:34:37;;;;;;;40.88;13.77;;;-6.10;99.90;;;;;;5090326;28;20475;-46
2022/12/18 06:37:02;;;;;;;41.30;15.15;;;-6.10;99.90;;;;;;5090020;28;20159;-44
2022/12/18 06:39:28;;;;;;;43.42;14.88;;;-6.20;99.90;;;;;;5089873;28;20064;-43
2022/12/18 06:41:54;;;;;;;47.00;15.63;;;-6.20;99.90;;;;;;5089257;28;20036;-43
2022/12/18 06:44:19;;;;;;;47.22;15.48;;;-6.20;99.90;;;;;;5071714;28;20082;-42
2022/12/18 06:46:45;;;;;;;40.20;15.20;;;-6.20;99.90;;;;;;5071655;28;20181;-45
2022/12/18 06:49:11;;;;;;;45.22;15.85;;;-6.00;99.90;;;;;;5089956;28;20391;-43
2022/12/18 06:51:37;;;;;;;39.90;14.90;;;-6.30;99.90;;;;;;5090080;28;20038;-45
2022/12/18 06:54:03;;;;;;;50.30;15.70;;;-6.30;99.90;;;;;;5070559;28;20185;-45
2022/12/18 06:56:29;;;;;;;39.58;14.00;;;-6.30;99.90;;;;;;5089594;28;20079;-44
2022/12/18 06:58:55;;;;;;;48.13;15.63;;;-6.40;99.90;;;;;;5071703;28;20165;-45
2022/12/18 07:01:21;;;;;;;50.13;15.27;;;-6.40;99.90;;;;;;5089810;28;20082;-44
2022/12/18 07:03:51;;;;;;;40.80;13.93;;;-6.30;99.90;;;;;;5088368;28;20039;-45
2022/12/18 07:06:22;;;;;;;39.67;13.80;;;-6.30;99.90;;;;;;5089677;28;20052;-47
2022/12/18 07:08:49;;;;;;;38.80;14.50;;;-6.30;99.90;;;;;;5089933;28;20043;-47
2022/12/18 07:11:16;;;;;;;43.03;17.10;;;-6.30;99.90;;;;;;5089774;28;20051;-45
2022/12/18 07:13:41;;;;;;;48.63;16.25;;;-6.30;99.90;;;;;;5089566;28;20091;-45
2022/12/18 07:16:19;;;;;;;43.80;14.25;;;-6.20;99.90;;;;;;5089583;28;20032;-46
2022/12/18 07:18:45;;;;;;;37.05;12.95;;;-6.30;99.90;;;;;;5089875;28;20040;-45
2022/12/18 07:21:14;;;;;;;35.78;13.07;;;-6.30;99.90;;;;;;5089295;28;20047;-47
2022/12/18 07:23:40;;;;;;;37.50;14.32;;;-6.30;99.90;;;;;;5089704;28;20043;-43
2022/12/18 07:26:10;;;;;;;39.58;13.32;;;-6.30;99.90;;;;;;5088995;28;20040;-45
2022/12/18 07:28:37;;;;;;;37.03;14.43;;;-6.30;99.90;;;;;;5071602;28;20039;-44
2022/12/18 07:31:09;;;;;;;35.90;14.52;;;-6.20;99.90;;;;;;5071265;28;20040;-43
2022/12/18 07:33:35;;;;;;;38.08;14.15;;;-6.20;99.90;;;;;;5073253;28;20058;-45
2022/12/18 07:36:03;;;;;;;36.63;14.32;;;-6.10;99.90;;;;;;5092948;28;20043;-46
2022/12/18 07:38:29;;;;;;;42.47;14.95;;;-6.10;99.90;;;;;;5093406;28;20040;-48
2022/12/18 07:40:59;;;;;;;38.10;14.52;;;-6.00;99.90;;;;;;5093311;28;20101;-48
2022/12/18 07:43:25;;;;;;;35.47;13.77;;;-6.10;99.90;;;;;;5093122;28;20047;-47
2022/12/18 07:45:51;;;;;;;35.40;13.52;;;-6.10;99.90;;;;;;5088316;28;20143;-42
2022/12/18 07:48:16;;;;;;;30.80;13.65;;;-6.10;99.90;;;;;;5086334;28;20032;-45
2022/12/18 07:50:42;;;;;;;39.08;15.38;;;-6.10;99.90;;;;;;5089916;28;20035;-44
2022/12/18 07:53:07;;;;;;;41.55;13.65;;;-6.00;99.90;;;;;;5093084;28;20540;-45
2022/12/18 07:55:33;;;;;;;32.35;13.90;;;-6.10;99.90;;;;;;5074439;28;20450;-44
2022/12/18 07:58:03;;;;;;;37.72;13.88;;;-6.10;99.90;;;;;;5092765;28;20040;-43
2022/12/18 08:00:29;;;;;;;35.10;13.43;;;-6.10;99.90;;;;;;5091323;28;20067;-43
2022/12/18 08:02:54;;;;;;;37.60;13.88;;;-6.00;99.90;;;;;;5073645;28;20037;-44
2022/12/18 08:05:20;;;;;;;36.33;13.73;;;-6.10;99.90;;;;;;5092322;28;20036;-43
2022/12/18 08:07:46;;;;;;;36.58;13.20;;;-6.00;99.90;;;;;;5092436;28;20048;-45
2022/12/18 08:10:12;;;;;;;40.72;13.70;;;-6.10;99.90;;;;;;5092749;28;20032;-43
2022/12/18 08:12:38;;;;;;;35.42;14.68;;;-6.00;99.90;;;;;;5092325;28;20043;-44
2022/12/18 08:15:04;;;;;;;35.85;14.05;;;-6.00;99.90;;;;;;5088833;28;20039;-44
2022/12/18 08:17:30;;;;;;;41.28;13.60;;;-6.00;99.90;;;;;;5071638;28;20036;-44
2022/12/18 08:19:55;;;;;;;32.70;12.50;;;-6.00;99.90;;;;;;5087246;28;20109;-46
2022/12/18 08:22:21;;;;;;;36.22;13.52;;;-6.00;99.90;;;;;;5089222;28;20051;-45
2022/12/18 08:24:47;;;;;;;35.05;13.70;;;-6.00;99.90;;;;;;5086494;28;20046;-44
2022/12/18 08:27:12;;;;;;;36.35;13.07;;;-6.00;99.90;;;;;;5090229;28;20039;-45
2022/12/18 08:29:38;;;;;;;30.58;13.35;;;-6.00;99.90;;;;;;5072171;28;20036;-46
2022/12/18 08:32:04;;;;;;;35.72;13.90;;;-5.90;99.90;;;;;;5071070;28;20119;-44
2022/12/18 08:34:30;;;;;;;33.13;11.77;;;-5.90;99.90;;;;;;5090424;28;20383;-46
2022/12/18 08:36:55;;;;;;;32.05;13.20;;;-5.90;99.90;;;;;;5090765;28;20475;-45
2022/12/18 08:39:21;;;;;;;31.70;12.57;;;-5.80;99.90;;;;;;5091033;28;20040;-45
2022/12/18 08:44:37;;;;;;;28.90;12.65;;;-5.80;99.90;;;;;;5070971;28;20518;-48
2022/12/18 08:44:38;;;;;;;33.35;12.75;;;-5.80;99.90;;;;;;5088454;28;20054;-44
2022/12/18 08:47:05;;;;;;;31.60;13.25;;;-5.80;99.90;;;;;;5071766;28;20372;-45
2022/12/18 08:49:31;;;;;;;33.85;15.23;;;-5.80;99.90;;;;;;5089307;28;20032;-45
2022/12/18 08:51:57;;;;;;;33.90;13.05;;;-5.70;99.90;;;;;;5071918;28;20044;-46
2022/12/18 08:54:23;;;;;;;33.70;12.90;;;-5.70;99.90;;;;;;5089311;28;20481;-43
2022/12/18 08:56:49;;;;;;;34.17;12.90;;;-5.70;99.90;;;;;;5089829;28;20047;-43
2022/12/18 08:59:16;;;;;;;32.60;12.43;;;-5.60;99.90;;;;;;5082285;28;20048;-46
2022/12/18 09:01:42;;;;;;;34.67;13.20;;;-5.60;99.90;;;;;;5089064;28;20386;-45
2022/12/18 09:04:09;;;;;;;32.03;13.52;;;-5.50;99.90;;;;;;5089827;28;20130;-45
2022/12/18 09:06:35;;;;;;;29.58;13.02;;;-5.50;99.90;;;;;;5089784;28;20056;-45
2022/12/18 09:09:01;;;;;;;31.67;12.57;;;-5.40;99.90;;;;;;5086394;28;20118;-44
2022/12/18 09:11:28;;;;;;;27.05;11.55;;;-5.40;99.90;;;;;;5070771;28;20036;-44
2022/12/18 09:13:55;;;;;;;26.20;11.73;;;-5.30;99.90;;;;;;5089762;28;20436;-44
2022/12/18 09:16:22;;;;;;;30.23;12.98;;;-5.10;99.90;;;;;;5088043;28;20122;-46
2022/12/18 09:18:48;;;;;;;30.33;12.68;;;-5.00;99.90;;;;;;5081299;28;20075;-45
2022/12/18 09:21:21;;;;;;;30.50;12.35;;;-4.90;99.90;;;;;;5079726;28;20040;-45
2022/12/18 09:23:54;;;;;;;25.77;10.48;;;-4.80;99.90;;;;;;5083101;28;20124;-47
2022/12/18 09:26:21;;;;;;;30.23;12.23;;;-4.70;99.90;;;;;;5086073;28;20032;-45
2022/12/18 09:28:47;;;;;;;23.15;11.10;;;-4.60;99.90;;;;;;5083398;28;20050;-44
2022/12/18 09:31:13;;;;;;;27.67;10.93;;;-4.50;99.90;;;;;;5080665;28;20349;-46
2022/12/18 09:33:39;;;;;;;25.00;10.98;;;-4.50;99.90;;;;;;5068291;28;20048;-45
2022/12/18 09:36:07;;;;;;;22.38;10.35;;;-4.50;99.90;;;;;;5083153;28;20048;-43
2022/12/18 09:38:34;;;;;;;23.10;9.93;;;-4.40;99.90;;;;;;5065466;28;20559;-45
2022/12/18 09:41:38;;;;;;;23.67;10.65;;;-4.30;99.90;;;;;;5077191;28;20036;-44
2022/12/18 09:44:35;;;;;;;22.33;10.40;;;-4.30;99.90;;;;;;5081783;28;20506;-45
2022/12/18 09:47:13;;;;;;;20.95;10.15;;;-4.10;99.90;;;;;;5083162;28;20041;-48
2022/12/18 09:49:45;;;;;;;24.13;9.80;;;-4.00;99.90;;;;;;5079582;28;20032;-44
2022/12/18 09:52:32;;;;;;;19.35;9.38;;;-3.30;99.90;;;;;;5087105;28;20036;-44
2022/12/18 09:55:23;;;;;;;24.27;10.15;;;-3.90;99.90;;;;;;5084297;28;20206;-46
2022/12/18 09:57:57;;;;;;;20.95;9.30;;;-3.90;99.90;;;;;;5066859;28;20135;-43
2022/12/18 10:00:24;;;;;;;;;;;-3.90;99.90;;;;;;5078914;28;20119;-44
2022/12/18 10:02:53;;;;;;;20.17;8.63;;;-3.90;99.90;;;;;;5068948;28;20019;-45
2022/12/18 10:05:29;;;;;;;17.88;9.13;;;-3.80;99.90;;;;;;5079742;28;20036;-44
2022/12/18 10:08:37;;;;;;;24.88;10.50;;;-3.80;99.90;;;;;;5080858;28;20044;-47
2022/12/18 10:11:24;;;;;;;20.98;9.77;;;-3.70;99.90;;;;;;5050196;28;20039;-46
2022/12/18 10:14:03;;;;;;;21.73;9.73;;;-3.70;99.90;;;;;;5064967;28;20036;-44
2022/12/18 10:16:50;;;;;;;17.67;8.65;;;-3.70;99.90;;;;;;5083311;28;20047;-45
2022/12/18 10:19:40;;;;;;;20.40;9.43;;;-3.60;99.90;;;;;;5080218;28;20051;-47
2022/12/18 10:22:09;;;;;;;17.42;8.73;;;-3.50;99.90;;;;;;5087729;28;20127;-45
2022/12/18 10:24:56;;;;;;;21.83;8.60;;;-3.50;99.90;;;;;;5069739;28;20063;-45
2022/12/18 10:27:25;;;;;;;15.65;7.88;;;-3.40;99.90;;;;;;5063896;28;20060;-45
2022/12/18 10:29:51;;;;;;;15.68;7.80;;;-3.30;99.90;;;;;;5080563;28;20109;-45
2022/12/18 10:32:20;;;;;;;17.00;8.02;;;-3.20;99.90;;;;;;5086058;28;20036;-47
2022/12/18 10:34:51;;;;;;;18.30;8.90;;;-3.10;99.90;;;;;;5085649;28;20040;-48
2022/12/18 10:37:20;;;;;;;20.67;9.02;;;-3.10;99.90;;;;;;5082497;28;20042;-47
2022/12/18 10:40:04;;;;;;;18.92;8.55;;;-3.10;99.90;;;;;;5070565;28;20124;-44
2022/12/18 10:42:30;;;;;;;15.98;7.68;;;-3.10;99.90;;;;;;5087936;28;20484;-49
2022/12/18 10:45:22;;;;;;;16.25;8.23;;;-3.00;99.90;;;;;;5086408;28;20043;-46
2022/12/18 10:47:49;;;;;;;16.83;8.32;;;-2.90;99.90;;;;;;5061133;28;20048;-48
2022/12/18 10:50:24;;;;;;;16.83;8.02;;;-2.90;99.90;;;;;;5062245;28;20035;-48
2022/12/18 10:52:58;;;;;;;16.85;7.88;;;-2.80;99.90;;;;;;5086645;28;20059;-47
2022/12/18 10:55:27;;;;;;;;;;;-2.80;99.90;;;;;;5084954;28;20086;-44
2022/12/18 10:57:53;;;;;;;15.75;7.50;;;-2.80;99.90;;;;;;5062877;28;20319;-47
2022/12/18 11:00:30;;;;;;;14.10;6.93;;;-2.70;99.90;;;;;;5079331;28;20136;-45
2022/12/18 11:02:56;;;;;;;15.65;7.50;;;-2.70;99.90;;;;;;5087406;28;20093;-47
2022/12/18 11:05:29;;;;;;;15.07;7.40;;;-2.70;99.90;;;;;;5074879;28;20064;-46
2022/12/18 11:07:56;;;;;;;15.50;6.75;;;-2.70;99.90;;;;;;5079356;28;20044;-47
2022/12/18 11:10:33;;;;;;;15.68;7.45;;;-2.40;99.90;;;;;;5080847;28;20068;-45
2022/12/18 11:13:16;;;;;;;14.70;7.03;;;-2.60;99.90;;;;;;5080538;28;20064;-46
2022/12/18 11:15:43;;;;;;;14.90;7.05;;;-2.50;99.90;;;;;;5540167;22;20140;-51
2022/12/18 11:18:22;;;;;;;15.57;7.10;;;-2.50;99.90;;;;;;4985939;28;20097;-47
2022/12/18 11:21:08;;;;;;;14.82;7.32;;;-2.40;99.90;;;;;;4985594;28;20105;-54
2022/12/18 11:23:36;;;;;;;13.50;6.10;;;-2.40;99.90;;;;;;4986793;28;20416;-53
2022/12/18 11:26:04;;;;;;;14.50;6.80;;;-2.30;99.90;;;;;;4985820;28;20416;-50
2022/12/18 11:28:43;;;;;;;14.02;6.60;;;-2.30;99.90;;;;;;4985540;28;20034;-52
2022/12/18 11:31:27;;;;;;;17.13;7.72;;;-2.30;99.90;;;;;;4985642;28;20042;-53
2022/12/18 11:34:13;;;;;;;14.65;6.38;;;-2.30;99.90;;;;;;4986091;28;20401;-52
2022/12/18 11:36:43;;;;;;;12.90;6.38;;;-2.20;99.90;;;;;;4985855;28;20038;-52
2022/12/18 11:39:38;;;;;;;16.27;7.18;;;-2.20;99.90;;;;;;4986802;28;20038;-50
2022/12/18 11:42:18;;;;;;;14.73;7.20;;;-2.20;99.90;;;;;;4991404;28;20042;-51
2022/12/18 11:44:51;;;;;;;15.90;7.60;;;-2.20;99.90;;;;;;4984596;28;20300;-52
2022/12/18 11:47:39;;;;;;;13.20;7.30;;;-2.20;99.90;;;;;;4984255;28;20139;-51
2022/12/18 11:50:17;;;;;;;14.63;7.00;;;-2.20;99.90;;;;;;4981913;28;20367;-52
2022/12/18 11:52:43;;;;;;;14.30;6.85;;;-2.20;99.90;;;;;;4997027;28;20062;-48
2022/12/18 11:55:14;;;;;;;12.52;6.95;;;-2.10;99.90;;;;;;4984348;28;20517;-50
2022/12/18 11:57:55;;;;;;;14.15;6.80;;;-2.10;99.90;;;;;;4981892;28;20196;-51
2022/12/18 12:00:22;;;;;;;13.18;6.45;;;-2.10;99.90;;;;;;4981504;28;20034;-50
2022/12/18 12:03:18;;;;;;;15.50;7.53;;;-2.10;99.90;;;;;;4981924;28;20042;-49
2022/12/18 12:06:03;;;;;;;12.73;7.03;;;-2.10;99.90;;;;;;4981957;28;20126;-50
2022/12/18 12:08:53;;;;;;;14.18;6.45;;;-2.00;99.90;;;;;;4982675;28;20053;-51
2022/12/18 12:11:50;;;;;;;12.18;6.25;;;-2.00;99.90;;;;;;4981644;28;20061;-49
2022/12/18 12:14:44;;;;;;;14.57;7.00;;;-2.00;99.90;;;;;;4982548;28;20084;-50
2022/12/18 12:17:26;;;;;;;14.90;6.95;;;-2.00;99.90;;;;;;4983712;28;20463;-50
2022/12/18 12:20:27;;;;;;;14.68;6.13;;;-1.90;99.90;;;;;;4977355;28;20050;-50
2022/12/18 12:23:08;;;;;;;13.35;6.70;;;-1.90;99.90;;;;;;4950474;28;20788;-50
2022/12/18 12:25:46;;;;;;;12.75;6.30;;;-1.80;99.90;;;;;;5005098;28;20057;-48
2022/12/18 12:28:49;;;;;;;11.60;6.60;;;-1.80;99.90;;;;;;5003729;28;20121;-53
2022/12/18 12:31:32;;;;;;;13.90;6.90;;;-1.80;99.90;;;;;;5003923;28;20052;-50
2022/12/18 12:34:16;;;;;;;12.65;6.35;;;-1.70;99.90;;;;;;4986231;28;20057;-53
2022/12/18 12:36:51;;;;;;;11.68;6.25;;;-1.70;99.90;;;;;;5004554;28;20049;-50
2022/12/18 12:39:25;;;;;;;12.57;6.22;;;-1.70;99.90;;;;;;5005226;28;20080;-49
2022/12/18 12:44:43;;;;;;;13.07;6.35;;;-1.60;99.90;;;;;;5003923;28;20123;-49
2022/12/18 12:47:21;;;;;;;;;;;-1.50;99.90;;;;;;5004443;28;20046;-54
2022/12/18 12:49:48;;;;;;;12.35;5.90;;;-1.50;99.90;;;;;;4986479;28;19957;-52
2022/12/18 12:52:47;;;;;;;13.68;6.50;;;-1.40;99.90;;;;;;5004749;28;20513;-51
2022/12/18 12:55:21;;;;;;;11.77;6.45;;;-1.40;99.90;;;;;;4993164;28;20132;-53
2022/12/18 12:58:25;;;;;;;13.10;6.20;;;-1.40;99.90;;;;;;5003718;28;20113;-50